Time;durP1;ratioP1;P1;durP2;ratioP2;P2;SDS_P1;SDS_P2;PMS_P1;PMS_P2;Temp;Humidity;BMP_temperature;BMP_pressure;BME280_temperature;BME280_humidity;BME280_pressure;Samples;Min_cycle;Max_cycle;Signal;HPM_P1;HPM_P2
2022/06/06 00:01:42;;;;;;;8.63;6.75;;;;;;;;;;5112009;28;20027;-49
2022/06/06 00:04:08;;;;;;;7.20;6.40;;;;;;;;;;5111754;28;20561;-49
2022/06/06 00:06:34;;;;;;;8.80;6.50;;;;;;;;;;5112077;28;20035;-49
2022/06/06 00:09:00;;;;;;;6.82;5.88;;;;;;;;;;5112145;28;20020;-49
2022/06/06 00:11:26;;;;;;;10.38;6.78;;;;;;;;;;5112127;28;20036;-49
2022/06/06 00:13:52;;;;;;;7.03;6.30;;;;;;;;;;5111973;28;20047;-49
2022/06/06 00:16:18;;;;;;;7.35;5.57;;;22.00;73.80;;;;;;5113574;28;20035;-49
2022/06/06 00:18:44;;;;;;;7.70;6.57;;;;;;;;;;5115797;28;20107;-48
2022/06/06 00:21:11;;;;;;;8.90;6.50;;;;;;;;;;5115622;28;20466;-49
2022/06/06 00:23:38;;;;;;;8.38;6.60;;;22.00;71.40;;;;;;5115871;28;20054;-48
2022/06/06 00:26:12;;;;;;;8.27;6.70;;;21.90;68.20;;;;;;5115587;28;20024;-49
2022/06/06 00:28:40;;;;;;;8.30;6.25;;;21.90;74.30;;;;;;5115539;28;20046;-50
2022/06/06 00:36:37;;;;;;;7.35;6.30;;;21.90;74.10;;;;;;5115716;28;20544;-49
2022/06/06 00:39:05;;;;;;;8.85;6.38;;;21.90;74.40;;;;;;5115391;28;20028;-48
2022/06/06 00:41:31;;;;;;;7.72;6.30;;;;;;;;;;5115176;28;20039;-49
2022/06/06 00:44:05;;;;;;;8.75;7.07;;;21.90;68.40;;;;;;5115197;28;20031;-49
2022/06/06 00:46:34;;;;;;;7.07;6.07;;;21.90;74.40;;;;;;5115242;28;20032;-48
2022/06/06 00:49:02;;;;;;;7.85;6.75;;;21.90;74.30;;;;;;5115245;28;20144;-48
2022/06/06 00:51:30;;;;;;;9.85;6.53;;;21.90;74.30;;;;;;5114873;28;20039;-48
2022/06/06 00:53:56;;;;;;;7.75;6.18;;;;;;;;;;5115064;28;20470;-49
2022/06/06 00:56:34;;;;;;;8.07;6.30;;;21.90;68.20;;;;;;5115137;28;20030;-48
2022/06/06 00:59:04;;;;;;;8.93;6.63;;;21.90;74.00;;;;;;5115025;28;20382;-48
2022/06/06 01:01:34;;;;;;;9.15;6.57;;;21.90;71.30;;;;;;5114695;28;20097;-48
2022/06/06 01:04:01;;;;;;;9.32;6.85;;;21.80;73.90;;;;;;5114904;28;20052;-49
2022/06/06 01:06:29;;;;;;;8.40;6.68;;;21.90;72.70;;;;;;5114778;28;20036;-49
2022/06/06 01:08:58;;;;;;;7.85;7.05;;;;;;;;;;5114793;28;20022;-50
2022/06/06 01:11:24;;;;;;;8.23;6.28;;;;;;;;;;5114672;28;20036;-49
2022/06/06 01:13:50;;;;;;;9.93;6.93;;;;;;;;;;5114913;28;20016;-48
2022/06/06 01:16:23;;;;;;;8.25;6.20;;;21.90;67.90;;;;;;5114635;28;20501;-48
2022/06/06 01:18:58;;;;;;;7.57;6.28;;;21.90;68.00;;;;;;5114613;28;20023;-48
2022/06/06 01:21:56;;;;;;;9.60;6.93;;;21.80;67.80;;;;;;5114517;28;20027;-48
2022/06/06 01:25:00;;;;;;;7.30;6.28;;;21.80;68.10;;;;;;5114549;28;20023;-49
2022/06/06 01:27:53;;;;;;;10.45;7.78;;;21.80;68.10;;;;;;5113981;28;20080;-50
2022/06/06 01:30:23;;;;;;;7.82;6.38;;;21.80;73.80;;;;;;5114224;28;20024;-49
2022/06/06 01:32:52;;;;;;;;;;;22.30;74.50;;;;;;5114741;28;20023;-48
2022/06/06 01:35:28;;;;;;;7.80;6.32;;;21.80;67.90;;;;;;5114249;28;20008;-49
2022/06/06 01:37:54;;;;;;;8.13;5.80;;;;;;;;;;5114457;28;20060;-50
2022/06/06 01:40:20;;;;;;;9.80;7.32;;;;;;;;;;5114183;28;20494;-49
2022/06/06 01:42:53;;;;;;;10.45;7.05;;;21.80;67.80;;;;;;5114444;28;20016;-47
2022/06/06 01:45:42;;;;;;;7.60;6.78;;;21.80;67.70;;;;;;5114112;28;20038;-49
2022/06/06 01:48:12;;;;;;;7.90;6.63;;;21.70;73.70;;;;;;5114065;28;20032;-49
2022/06/06 01:50:40;;;;;;;8.73;6.63;;;21.80;73.70;;;;;;5113792;28;20076;-49
2022/06/06 01:53:08;;;;;;;8.60;7.15;;;21.80;73.70;;;;;;5113959;28;20031;-48
2022/06/06 01:55:36;;;;;;;8.48;6.97;;;21.70;73.60;;;;;;5113828;28;20168;-48
2022/06/06 01:58:06;;;;;;;8.05;6.88;;;21.80;73.50;;;;;;5113831;28;20032;-49
2022/06/06 02:00:34;;;;;;;9.05;6.97;;;21.80;73.60;;;;;;5114047;28;20428;-48
2022/06/06 02:03:00;;;;;;;8.38;7.03;;;;;;;;;;5113435;28;20104;-49
2022/06/06 02:05:27;;;;;;;9.23;7.32;;;;;;;;;;5113693;28;20034;-48
2022/06/06 02:07:53;;;;;;;9.90;7.20;;;;;;;;;;5113593;28;20032;-48
2022/06/06 02:10:20;;;;;;;12.68;8.82;;;21.80;73.70;;;;;;5113603;28;20023;-48
2022/06/06 02:12:46;;;;;;;8.75;6.75;;;;;;;;;;5113743;28;20027;-48
2022/06/06 02:15:14;;;;;;;9.68;7.13;;;21.80;74.10;;;;;;5113526;28;20098;-49
2022/06/06 02:17:40;;;;;;;8.93;7.07;;;;;;;;;;5113465;28;20028;-49
2022/06/06 02:20:07;;;;;;;10.02;7.45;;;21.80;71.60;;;;;;5113447;28;20062;-49
2022/06/06 02:22:33;;;;;;;9.65;7.18;;;;;;;;;;5113353;28;20015;-48
2022/06/06 02:24:59;;;;;;;9.40;6.90;;;;;;;;;;5113323;28;20462;-49
2022/06/06 02:27:26;;;;;;;9.88;7.63;;;21.80;71.30;;;;;;5113303;28;20031;-48
2022/06/06 02:29:52;;;;;;;10.93;7.95;;;;;;;;;;5113370;28;20016;-48
2022/06/06 02:32:19;;;;;;;8.73;7.20;;;;;;;;;;5113171;28;20061;-48
2022/06/06 02:34:45;;;;;;;9.13;7.18;;;;;;;;;;5113072;28;20475;-48
2022/06/06 02:37:11;;;;;;;9.02;7.53;;;;;;;;;;5113504;28;20406;-51
2022/06/06 02:39:37;;;;;;;9.88;7.40;;;;;;;;;;5112267;28;20032;-54
2022/06/06 02:42:03;;;;;;;10.80;7.45;;;;;;;;;;5112910;28;20027;-51
2022/06/06 02:44:29;;;;;;;9.82;7.90;;;;;;;;;;5112915;28;20390;-52
2022/06/06 02:46:55;;;;;;;8.07;7.13;;;;;;;;;;5112862;28;20020;-50
2022/06/06 02:49:21;;;;;;;9.68;7.20;;;;;;;;;;5112926;28;20055;-52
2022/06/06 02:51:47;;;;;;;9.35;7.65;;;;;;;;;;5112649;28;20082;-50
2022/06/06 02:54:13;;;;;;;10.75;7.57;;;;;;;;;;5112825;28;20023;-54
2022/06/06 02:56:39;;;;;;;9.02;7.78;;;;;;;;;;5112786;28;20434;-51
2022/06/06 02:59:06;;;;;;;9.52;7.22;;;21.70;73.80;;;;;;5112660;28;20070;-52
2022/06/06 03:01:32;;;;;;;9.48;6.95;;;;;;;;;;5112611;28;20034;-51
2022/06/06 03:03:58;;;;;;;10.27;7.80;;;;;;;;;;5112364;28;20044;-51
2022/06/06 03:06:48;;;;;;;9.27;7.55;;;21.70;67.90;;;;;;5112744;28;20367;-51
2022/06/06 03:09:41;;;;;;;11.73;7.82;;;21.90;67.70;;;;;;5112938;28;20038;-51
2022/06/06 03:12:07;;;;;;;10.60;7.65;;;;;;;;;;5112658;28;20448;-51
2022/06/06 03:15:03;;;;;;;9.35;7.10;;;21.70;67.50;;;;;;5112506;28;20020;-54
2022/06/06 03:21:27;;;;;;;8.52;6.88;;;21.70;67.70;;;;;;5112799;28;20084;-50
2022/06/06 03:23:53;;;;;;;8.88;7.10;;;;;;;;;;5112398;28;20028;-51
2022/06/06 03:26:58;;;;;;;11.48;7.00;;;21.50;67.50;;;;;;5112440;28;20104;-54
2022/06/06 03:29:41;;;;;;;8.93;6.45;;;21.70;67.40;;;;;;5112426;28;20382;-52
2022/06/06 03:32:29;;;;;;;9.20;7.50;;;21.60;67.40;;;;;;5112265;28;20490;-53
2022/06/06 03:35:06;;;;;;;10.05;7.28;;;21.60;73.80;;;;;;5112232;28;20058;-52
2022/06/06 03:37:32;;;;;;;10.60;7.95;;;;;;;;;;5112317;28;20535;-51
2022/06/06 03:40:30;;;;;;;8.48;7.15;;;21.70;67.70;;;;;;5112132;28;20024;-53
2022/06/06 03:43:08;;;;;;;9.30;6.80;;;21.70;67.60;;;;;;5112178;28;20506;-53
2022/06/06 03:45:48;;;;;;;8.75;7.35;;;21.70;73.50;;;;;;5112272;28;20027;-51
2022/06/06 03:48:14;;;;;;;9.57;6.70;;;;;;;;;;5112354;28;20537;-50
2022/06/06 03:51:01;;;;;;;10.23;7.60;;;21.70;67.30;;;;;;5114662;28;20114;-53
2022/06/06 03:53:35;;;;;;;9.38;7.38;;;21.60;73.40;;;;;;5116417;28;20059;-53
2022/06/06 03:56:01;;;;;;;8.52;7.05;;;;;;;;;;5116205;28;20099;-51
2022/06/06 03:58:31;;;;;;;8.70;6.60;;;21.70;73.80;;;;;;5116516;28;20049;-51
2022/06/06 04:06:57;;;;;;;8.15;6.80;;;21.70;73.50;;;;;;5042667;28;20036;-49
2022/06/06 04:09:24;;;;;;;9.55;7.63;;;;;;;;;;5035585;28;20448;-49
2022/06/06 04:12:29;;;;;;;8.85;7.00;;;21.60;67.40;;;;;;5035509;28;20052;-48
2022/06/06 04:15:06;;;;;;;8.65;6.88;;;21.60;73.60;;;;;;4981767;28;20400;-49
2022/06/06 04:17:34;;;;;;;9.63;6.80;;;21.60;67.80;;;;;;5035722;28;20021;-49
2022/06/06 04:20:17;;;;;;;8.73;6.68;;;21.60;73.60;;;;;;5035494;28;20033;-49
2022/06/06 04:22:55;;;;;;;7.50;6.57;;;21.60;67.60;;;;;;5035447;28;20115;-49
2022/06/06 04:25:32;;;;;;;9.63;6.60;;;21.60;67.60;;;;;;5035634;28;20387;-50
2022/06/06 04:28:11;;;;;;;8.82;6.38;;;21.60;67.50;;;;;;5035331;28;20108;-49
2022/06/06 04:30:37;;;;;;;8.10;6.18;;;;;;;;;;5035260;28;20022;-50
2022/06/06 04:33:06;;;;;;;7.63;5.88;;;21.60;67.40;;;;;;5035265;28;20040;-49
2022/06/06 04:35:43;;;;;;;8.38;6.00;;;21.30;73.20;;;;;;5035175;28;20480;-48
2022/06/06 04:38:44;;;;;;;7.13;6.38;;;21.50;67.30;;;;;;5035198;28;20079;-50
2022/06/06 04:41:12;;;;;;;8.15;5.93;;;21.60;67.20;;;;;;5035376;28;20021;-47
2022/06/06 04:43:52;;;;;;;8.27;5.93;;;21.50;67.20;;;;;;5035351;28;20103;-50
2022/06/06 04:46:18;;;;;;;7.83;6.63;;;;;;;;;;5035010;28;20075;-47
2022/06/06 04:48:44;;;;;;;9.13;6.18;;;;;;;;;;5034822;28;20276;-49
2022/06/06 04:51:12;;;;;;;6.93;5.47;;;21.50;72.90;;;;;;5034794;28;20090;-47
2022/06/06 04:53:42;;;;;;;7.13;6.25;;;21.60;72.80;;;;;;5034824;28;20056;-47
2022/06/06 04:56:08;;;;;;;6.88;5.53;;;;;;;;;;5034864;28;20066;-47
2022/06/06 04:58:37;;;;;;;7.10;5.47;;;21.50;72.60;;;;;;5034700;28;20064;-49
2022/06/06 05:01:03;;;;;;;7.13;5.50;;;21.60;70.80;;;;;;5034061;28;20018;-49
2022/06/06 05:03:29;;;;;;;7.85;5.93;;;;;;;;;;5051956;28;20128;-49
2022/06/06 05:06:14;;;;;;;6.63;5.35;;;21.50;66.60;;;;;;5054506;28;20064;-49
2022/06/06 05:08:40;;;;;;;7.03;5.45;;;;;;;;;;5054438;28;20037;-49
2022/06/06 05:11:21;;;;;;;6.20;5.10;;;21.50;72.20;;;;;;5054378;28;20051;-49
2022/06/06 05:14:32;;;;;;;6.85;5.50;;;21.50;66.50;;;;;;5054500;28;20021;-49
2022/06/06 05:17:06;;;;;;;6.25;5.57;;;21.60;72.50;;;;;;5023503;28;20037;-51
2022/06/06 05:19:52;;;;;;;5.63;4.85;;;21.50;66.60;;;;;;5054313;28;20112;-51
2022/06/06 05:22:33;;;;;;;5.18;4.68;;;21.50;66.40;;;;;;5054307;28;20033;-51
2022/06/06 05:25:19;;;;;;;5.50;4.80;;;21.50;66.60;;;;;;5054236;28;20033;-52
2022/06/06 05:27:45;;;;;;;6.20;5.60;;;;;;;;;;5054144;28;20032;-50
2022/06/06 05:30:26;;;;;;;7.15;4.97;;;21.40;66.20;;;;;;5054055;28;20048;-50
2022/06/06 05:33:03;;;;;;;5.70;4.35;;;21.60;72.10;;;;;;5054330;28;20056;-49
2022/06/06 05:35:29;;;;;;;5.63;4.22;;;;;;;;;;5054073;28;20025;-49
2022/06/06 05:38:21;;;;;;;6.03;4.40;;;21.60;66.40;;;;;;5053910;28;20086;-50
2022/06/06 05:41:06;;;;;;;4.80;4.30;;;21.60;66.30;;;;;;5053815;28;20021;-48
2022/06/06 05:44:12;;;;;;;5.45;3.60;;;21.50;66.40;;;;;;5053849;28;20056;-48
2022/06/06 05:46:50;;;;;;;6.20;4.57;;;21.50;66.70;;;;;;5042872;28;20101;-49
2022/06/06 05:49:16;;;;;;;5.35;4.85;;;;;;;;;;5052897;28;20025;-49
2022/06/06 05:52:06;;;;;;;4.82;3.78;;;21.70;72.40;;;;;;5053257;28;20041;-49
2022/06/06 05:54:41;;;;;;;7.60;4.32;;;21.60;66.10;;;;;;5053446;28;20463;-49
2022/06/06 05:57:26;;;;;;;4.00;3.33;;;21.60;66.20;;;;;;5053711;28;20164;-48
2022/06/06 06:00:10;;;;;;;7.80;4.40;;;21.60;66.40;;;;;;5053319;28;20028;-49
2022/06/06 06:02:54;;;;;;;6.00;4.32;;;21.60;66.90;;;;;;5053009;28;20086;-50
2022/06/06 06:05:55;;;;;;;4.57;3.72;;;21.50;67.10;;;;;;5053180;28;20487;-49
2022/06/06 06:08:32;;;;;;;;;;;21.60;68.20;;;;;;5053690;28;20028;-49
2022/06/06 06:11:32;;;;;;;4.22;3.83;;;21.50;73.10;;;;;;5053142;28;19920;-49
2022/06/06 06:14:20;;;;;;;5.20;3.90;;;21.60;66.90;;;;;;5042428;28;20122;-49
2022/06/06 06:16:52;;;;;;;5.82;4.03;;;21.60;72.70;;;;;;5053212;28;20442;-48
2022/06/06 06:19:22;;;;;;;6.82;4.72;;;21.70;72.50;;;;;;5053222;28;20394;-53
2022/06/06 06:21:55;;;;;;;4.93;3.67;;;21.80;72.40;;;;;;5053051;28;20021;-50
2022/06/06 06:24:33;;;;;;;5.60;3.25;;;21.90;66.90;;;;;;5052808;28;20056;-51
2022/06/06 06:27:02;;;;;;;3.38;3.03;;;21.60;72.60;;;;;;5052962;28;20083;-52
2022/06/06 06:29:28;;;;;;;3.78;3.35;;;;;;;;;;5052752;28;20033;-50
2022/06/06 06:31:54;;;;;;;4.35;3.20;;;;;;;;;;5052625;28;20041;-50
2022/06/06 06:34:41;;;;;;;3.50;3.20;;;21.60;67.30;;;;;;5052546;28;20082;-52
2022/06/06 06:37:18;;;;;;;4.18;3.78;;;21.50;67.20;;;;;;5052930;28;20035;-51
2022/06/06 06:40:09;;;;;;;3.65;3.33;;;21.60;66.90;;;;;;5052678;28;20036;-48
2022/06/06 06:42:40;;;;;;;;;;;21.50;67.60;;;;;;5052962;28;20033;-48
2022/06/06 06:45:08;;;;;;;4.18;3.00;;;;;;;;;;5052494;28;19905;-49
2022/06/06 06:47:35;;;;;;;4.13;3.10;;;21.60;72.70;;;;;;5052775;28;20036;-51
2022/06/06 06:50:33;;;;;;;4.07;3.25;;;21.60;66.90;;;;;;5052504;28;20551;-52
2022/06/06 06:52:58;;;;;;;4.15;2.80;;;;;;;;;;5052543;28;20082;-50
2022/06/06 06:55:47;;;;;;;4.75;2.78;;;21.70;66.80;;;;;;5052390;28;20458;-52
2022/06/06 06:58:40;;;;;;;4.35;3.20;;;21.70;66.90;;;;;;5052400;28;20104;-51
2022/06/06 07:01:12;;;;;;;3.60;3.03;;;21.70;72.90;;;;;;5052314;28;20434;-51
2022/06/06 07:08:32;;;;;;;4.47;2.88;;;21.80;67.20;;;;;;5052216;28;20032;-52
2022/06/06 07:09:56;;;;;;;5.00;2.50;;;21.70;67.40;;;;;;5051970;28;20029;-49
2022/06/06 07:12:43;;;;;;;3.92;2.85;;;21.70;67.40;;;;;;5051960;28;20040;-52
2022/06/06 07:15:39;;;;;;;4.57;2.40;;;21.80;73.20;;;;;;5051916;28;20411;-50
2022/06/06 07:18:10;;;;;;;4.78;2.03;;;21.70;73.10;;;;;;5052015;28;20032;-51
2022/06/06 07:20:40;;;;;;;3.78;2.63;;;21.60;72.80;;;;;;5051982;28;20021;-51
2022/06/06 07:23:11;;;;;;;3.38;2.40;;;21.60;72.70;;;;;;5051895;28;20047;-49
2022/06/06 07:25:41;;;;;;;;;;;21.70;73.50;;;;;;5051912;28;20021;-48
2022/06/06 07:28:11;;;;;;;3.00;2.20;;;21.70;72.70;;;;;;5051918;28;19905;-47
2022/06/06 07:30:58;;;;;;;2.28;1.98;;;21.70;66.70;;;;;;5051634;28;20484;-47
2022/06/06 07:33:24;;;;;;;2.03;1.90;;;;;;;;;;5051727;28;20056;-47
2022/06/06 07:36:17;;;;;;;1.80;1.70;;;21.70;66.20;;;;;;5051833;28;20086;-47
2022/06/06 07:39:01;;;;;;;2.80;1.95;;;21.80;66.40;;;;;;5051701;28;20033;-47
2022/06/06 07:41:48;;;;;;;2.13;1.83;;;21.70;72.20;;;;;;5051507;28;20491;-47
2022/06/06 07:44:29;;;;;;;3.50;2.20;;;21.70;66.30;;;;;;5051485;28;20029;-49
2022/06/06 07:47:07;;;;;;;2.13;1.55;;;21.70;66.20;;;;;;5051590;28;20029;-48
2022/06/06 07:49:33;;;;;;;2.65;1.75;;;;;;;;;;5051524;28;20025;-48
2022/06/06 07:52:07;;;;;;;3.75;1.90;;;21.70;72.10;;;;;;5051715;28;20225;-49
2022/06/06 07:54:49;;;;;;;12.63;1.98;;;21.80;66.50;;;;;;5051539;28;20040;-48
2022/06/06 07:57:40;;;;;;;4.38;2.15;;;21.70;66.40;;;;;;5051870;28;20021;-48
2022/06/06 08:00:16;;;;;;;2.35;1.45;;;21.70;66.30;;;;;;5051667;28;20556;-49
2022/06/06 08:02:52;;;;;;;3.22;1.73;;;21.80;66.10;;;;;;5051328;28;20514;-47
2022/06/06 08:05:51;;;;;;;1.80;1.30;;;21.80;66.10;;;;;;5051577;28;20104;-47
2022/06/06 08:08:23;;;;;;;3.00;2.00;;;21.50;65.80;;;;;;5051325;28;20357;-47
2022/06/06 08:10:49;;;;;;;4.97;1.90;;;;;;;;;;5051395;28;20029;-46
2022/06/06 08:13:40;;;;;;;3.33;1.73;;;21.80;65.80;;;;;;5051446;28;20124;-47
2022/06/06 08:16:21;;;;;;;3.95;1.55;;;21.80;65.70;;;;;;5051510;28;20101;-48
2022/06/06 08:18:48;;;;;;;2.80;1.20;;;;;;;;;;5051500;28;20032;-46
2022/06/06 08:21:22;;;;;;;2.45;1.38;;;22.10;65.80;;;;;;5051647;28;20029;-48
2022/06/06 08:23:52;;;;;;;3.65;1.40;;;21.90;71.60;;;;;;5051647;28;20391;-47
2022/06/06 08:26:19;;;;;;;2.55;1.58;;;;;;;;;;5051380;28;20070;-51
2022/06/06 08:28:45;;;;;;;2.92;1.45;;;;;;;;;;5051304;28;20059;-51
2022/06/06 08:31:11;;;;;;;2.60;1.60;;;21.90;68.40;;;;;;5051471;28;20025;-53
2022/06/06 08:33:37;;;;;;;2.03;1.23;;;;;;;;;;5051232;28;20029;-53
2022/06/06 08:36:24;;;;;;;2.03;1.30;;;21.80;65.10;;;;;;5051275;28;20048;-52
2022/06/06 08:38:50;;;;;;;1.50;1.25;;;;;;;;;;5037010;28;20556;-53
2022/06/06 08:42:01;;;;;;;1.77;1.10;;;21.90;65.40;;;;;;5055011;28;20044;-50
2022/06/06 08:44:45;;;;;;;2.53;1.30;;;21.90;65.00;;;;;;5054668;28;20029;-50
2022/06/06 08:47:31;;;;;;;2.28;1.05;;;22.00;64.90;;;;;;5054637;28;20032;-53
2022/06/06 08:53:06;;;;;;;2.95;0.98;;;22.00;65.00;;;;;;5054565;28;20053;-52
2022/06/06 08:55:59;;;;;;;2.42;1.00;;;21.90;64.50;;;;;;5054556;28;20036;-49
2022/06/06 08:58:43;;;;;;;1.85;1.15;;;22.00;64.50;;;;;;5054290;28;20396;-50
2022/06/06 09:01:21;;;;;;;3.17;1.02;;;22.10;64.80;;;;;;5054232;28;20436;-51
2022/06/06 09:04:05;;;;;;;1.63;0.80;;;22.00;64.40;;;;;;5054225;28;20033;-49
2022/06/06 09:06:54;;;;;;;3.20;0.90;;;22.00;70.40;;;;;;5054055;28;20025;-50
2022/06/06 09:09:41;;;;;;;2.13;0.95;;;22.10;64.70;;;;;;5053942;28;20108;-54
2022/06/06 09:12:43;;;;;;;3.95;1.20;;;22.00;64.40;;;;;;5053938;28;20510;-50
2022/06/06 09:15:20;;;;;;;6.78;0.93;;;22.00;64.40;;;;;;5053891;28;20033;-49
2022/06/06 09:18:21;;;;;;;0.95;0.70;;;22.00;64.20;;;;;;5053937;28;20023;-51
2022/06/06 09:21:05;;;;;;;1.35;0.80;;;22.00;64.00;;;;;;5022992;28;20395;-50
2022/06/06 09:23:30;;;;;;;2.45;0.80;;;;;;;;;;5053667;28;20021;-53
2022/06/06 09:26:21;;;;;;;2.65;0.70;;;22.20;63.60;;;;;;5053653;28;20036;-51
2022/06/06 09:29:08;;;;;;;2.70;0.68;;;22.20;63.80;;;;;;5053915;28;20025;-50
2022/06/06 09:31:58;;;;;;;2.80;1.02;;;22.30;63.20;;;;;;5053587;28;20047;-50
2022/06/06 09:34:24;;;;;;;2.40;1.13;;;;;;;;;;5053816;28;20368;-49
2022/06/06 09:37:31;;;;;;;1.40;0.77;;;22.40;63.30;;;;;;5053349;28;20082;-50
2022/06/06 09:40:26;;;;;;;0.80;0.55;;;22.50;68.40;;;;;;5053599;28;20032;-50
2022/06/06 09:43:24;;;;;;;1.90;0.80;;;22.40;63.40;;;;;;5052730;28;20040;-49
2022/06/06 09:46:11;;;;;;;4.00;0.85;;;22.50;62.50;;;;;;5053210;28;20078;-50
2022/06/06 09:49:01;;;;;;;2.80;0.90;;;22.50;62.60;;;;;;5053178;28;20040;-52
2022/06/06 09:51:33;;;;;;;;;;;22.60;63.60;;;;;;5053739;28;20036;-50
2022/06/06 10:01:06;;;;;;;0.73;0.68;;;22.70;62.20;;;;;;5053634;28;20040;-52
2022/06/06 10:03:52;;;;;;;1.67;0.70;;;22.60;62.50;;;;;;5053289;28;20587;-52
2022/06/06 10:06:46;;;;;;;1.20;0.77;;;22.70;62.50;;;;;;5053395;28;20036;-50
2022/06/06 10:09:20;;;;;;;3.08;0.80;;;22.70;62.30;;;;;;5053341;28;20036;-53
2022/06/06 10:12:17;;;;;;;3.50;0.95;;;22.80;63.00;;;;;;5053081;28;20491;-50
2022/06/06 10:15:22;;;;;;;1.50;0.90;;;22.80;62.70;;;;;;5048857;28;20044;-49
2022/06/06 10:18:21;;;;;;;2.53;0.70;;;22.60;62.40;;;;;;5052862;28;20049;-52
2022/06/06 10:21:24;;;;;;;1.05;0.70;;;22.80;62.90;;;;;;5052829;28;20028;-50
2022/06/06 10:24:00;;;;;;;3.30;0.73;;;22.80;68.80;;;;;;5052893;28;20090;-50
2022/06/06 10:26:49;;;;;;;1.80;0.98;;;22.80;63.00;;;;;;5052907;28;20619;-52
2022/06/06 10:29:27;;;;;;;2.75;0.88;;;22.80;63.00;;;;;;5052966;28;20479;-50
2022/06/06 10:32:14;;;;;;;2.10;1.00;;;22.80;69.10;;;;;;5052680;28;20077;-49
2022/06/06 10:34:48;;;;;;;1.85;0.65;;;22.70;63.20;;;;;;5052780;28;20078;-53
2022/06/06 10:37:36;;;;;;;2.88;0.50;;;22.50;62.90;;;;;;5052671;28;20095;-51
2022/06/06 10:40:28;;;;;;;5.55;0.70;;;22.70;68.90;;;;;;5052591;28;20025;-51
2022/06/06 10:43:19;;;;;;;0.68;0.50;;;22.80;63.10;;;;;;5052592;28;20120;-55
2022/06/06 10:45:55;;;;;;;2.70;0.77;;;22.80;63.10;;;;;;5052731;28;20051;-52
2022/06/06 10:48:39;;;;;;;2.17;0.60;;;22.60;69.00;;;;;;5052570;28;20025;-51
2022/06/06 10:51:38;;;;;;;2.13;0.63;;;22.80;63.40;;;;;;5052439;28;20029;-51
2022/06/06 10:54:41;;;;;;;1.13;0.65;;;22.70;63.20;;;;;;5034468;28;20114;-54
2022/06/06 10:57:07;;;;;;;0.88;0.68;;;;;;;;;;5052368;28;20029;-52
2022/06/06 10:59:45;;;;;;;1.00;0.70;;;22.70;63.00;;;;;;5051982;28;20378;-51
2022/06/06 11:02:11;;;;;;;1.38;0.82;;;;;;;;;;5052016;28;20072;-51
2022/06/06 11:05:11;;;;;;;1.95;0.80;;;22.70;69.20;;;;;;5052238;28;20062;-64
2022/06/06 11:07:55;;;;;;;1.02;0.60;;;22.70;63.40;;;;;;5052364;28;20033;-52
2022/06/06 11:10:51;;;;;;;1.17;0.50;;;22.70;63.40;;;;;;5052205;28;20053;-51
2022/06/06 11:13:54;;;;;;;1.58;0.68;;;22.70;63.20;;;;;;5052041;28;20079;-50
2022/06/06 11:16:38;;;;;;;0.65;0.50;;;22.60;63.40;;;;;;5049493;28;20083;-50
2022/06/06 11:19:28;;;;;;;1.35;0.60;;;22.60;63.60;;;;;;5052018;28;20076;-52
2022/06/06 11:22:24;;;;;;;1.35;0.68;;;22.60;63.60;;;;;;5052205;28;20067;-51
2022/06/06 11:25:07;;;;;;;0.95;0.60;;;22.50;63.60;;;;;;5052307;28;20430;-51
2022/06/06 11:27:36;;;;;;;1.38;0.60;;;22.60;64.00;;;;;;5052069;28;20025;-51
2022/06/06 11:30:17;;;;;;;1.50;0.55;;;22.60;64.10;;;;;;5052005;28;20067;-50
2022/06/06 11:33:16;;;;;;;0.95;0.43;;;22.50;63.90;;;;;;5052027;28;20037;-51
2022/06/06 11:36:26;;;;;;;2.70;0.57;;;22.30;64.10;;;;;;5051992;28;20036;-50
2022/06/06 11:39:08;;;;;;;1.00;0.63;;;22.40;64.10;;;;;;5051810;28;20115;-52
2022/06/06 11:42:18;;;;;;;2.25;0.60;;;22.30;64.10;;;;;;5052122;28;20048;-49
2022/06/06 11:45:21;;;;;;;0.77;0.50;;;22.50;64.30;;;;;;5051877;28;20025;-49
2022/06/06 11:48:05;;;;;;;2.10;0.70;;;22.40;64.40;;;;;;5051695;28;20115;-47
2022/06/06 11:50:55;;;;;;;1.08;0.77;;;22.40;64.30;;;;;;5051582;28;20044;-49
2022/06/06 11:53:59;;;;;;;2.00;0.70;;;22.40;64.50;;;;;;5033867;28;20514;-49
2022/06/06 11:56:39;;;;;;;1.95;0.70;;;22.40;64.40;;;;;;5051729;28;20033;-50
2022/06/06 11:59:54;;;;;;;3.33;0.85;;;22.30;64.60;;;;;;5052188;28;20017;-48
2022/06/06 12:02:42;;;;;;;1.17;0.47;;;22.40;64.50;;;;;;5051330;28;20049;-48
2022/06/06 12:05:28;;;;;;;1.13;0.60;;;22.50;64.70;;;;;;5051491;28;20025;-54
2022/06/06 12:08:42;;;;;;;1.13;0.50;;;22.30;64.70;;;;;;5051452;28;20033;-50
2022/06/06 12:11:32;;;;;;;1.42;0.88;;;22.30;64.80;;;;;;5045625;28;20045;-50
2022/06/06 12:14:17;;;;;;;1.17;0.70;;;22.30;64.90;;;;;;5055548;28;20036;-52
2022/06/06 12:17:16;;;;;;;6.00;0.85;;;22.30;64.90;;;;;;5055534;28;20364;-50
2022/06/06 12:20:01;;;;;;;1.67;0.57;;;22.70;65.20;;;;;;5055372;28;20601;-53
2022/06/06 12:22:48;;;;;;;0.80;0.50;;;22.40;65.00;;;;;;5055325;28;20025;-51
2022/06/06 12:25:14;;;;;;;1.15;0.60;;;;;;;;;;5055106;28;20032;-51
2022/06/06 12:27:50;;;;;;;2.00;0.70;;;21.40;71.00;;;;;;5054971;28;20464;-52
2022/06/06 12:30:31;;;;;;;1.65;0.60;;;22.30;65.10;;;;;;5055197;28;20072;-49
2022/06/06 12:33:09;;;;;;;1.67;0.80;;;22.20;65.10;;;;;;5055316;28;20040;-51
2022/06/06 12:35:35;;;;;;;3.15;0.70;;;;;;;;;;5055162;28;20067;-51
2022/06/06 12:38:23;;;;;;;1.83;0.68;;;22.00;65.50;;;;;;5055082;28;20393;-51
2022/06/06 12:41:26;;;;;;;2.78;1.20;;;22.20;65.60;;;;;;5055012;28;20494;-50
2022/06/06 12:43:58;;;;;;;1.35;0.60;;;22.20;71.50;;;;;;5054953;28;20120;-50
2022/06/06 12:46:33;;;;;;;2.80;0.60;;;22.00;65.50;;;;;;5054857;28;20518;-51
2022/06/06 12:48:59;;;;;;;1.42;0.60;;;;;;;;;;5054852;28;20112;-51
2022/06/06 12:51:53;;;;;;;2.70;0.85;;;22.20;71.60;;;;;;5054619;28;20116;-52
2022/06/06 12:55:27;;;;;;;1.23;0.65;;;21.90;71.70;;;;;;5019086;28;20029;-50
2022/06/06 12:57:48;;;;;;;1.63;0.60;;;22.10;71.50;;;;;;5054437;28;20115;-52
2022/06/06 13:00:15;;;;;;;2.42;0.57;;;;;;;;;;5013506;28;20072;-54
2022/06/06 13:03:04;;;;;;;1.33;0.80;;;22.40;65.80;;;;;;5054022;28;20064;-52
2022/06/06 13:05:55;;;;;;;1.52;0.80;;;22.10;66.10;;;;;;5054395;28;20033;-52
2022/06/06 13:08:59;;;;;;;5.18;0.75;;;22.10;66.10;;;;;;5054323;28;20037;-49
2022/06/06 13:11:42;;;;;;;0.70;0.60;;;22.10;66.10;;;;;;5054481;28;20033;-53
2022/06/06 13:14:37;;;;;;;1.23;0.80;;;22.10;72.40;;;;;;5054279;28;20043;-51
2022/06/06 13:17:16;;;;;;;1.10;0.85;;;22.00;72.60;;;;;;5054148;28;20040;-52
2022/06/06 13:19:42;;;;;;;1.55;0.85;;;;;;;;;;5054072;28;20037;-51
2022/06/06 13:22:26;;;;;;;2.17;0.88;;;22.20;66.60;;;;;;5053439;28;20593;-50
2022/06/06 13:25:32;;;;;;;8.85;0.85;;;22.10;66.30;;;;;;5053913;28;20025;-48
2022/06/06 13:28:11;;;;;;;3.15;0.82;;;22.10;66.40;;;;;;5053893;28;20052;-48
2022/06/06 13:30:48;;;;;;;2.00;0.60;;;22.10;66.60;;;;;;5053180;28;20025;-49
2022/06/06 13:33:31;;;;;;;1.00;0.80;;;22.10;65.90;;;;;;5053252;28;20051;-60
2022/06/06 13:36:05;;;;;;;1.00;0.25;;;22.20;66.10;;;;;;5053643;28;20223;-62
2022/06/06 13:38:39;;;;;;;8.48;0.80;;;22.30;66.20;;;;;;5053553;28;20033;-60
2022/06/06 13:41:05;;;;;;;4.22;0.85;;;;;;;;;;5053966;28;20033;-61
2022/06/06 13:43:49;;;;;;;3.97;0.80;;;22.30;66.20;;;;;;5053407;28;20021;-60
2022/06/06 13:46:15;;;;;;;1.75;0.68;;;;;;;;;;5053459;28;20033;-60
2022/06/06 13:49:02;;;;;;;2.42;0.40;;;22.30;65.60;;;;;;5053766;28;20029;-60
2022/06/06 13:51:28;;;;;;;3.47;0.60;;;;;;;;;;5053478;28;20041;-60
2022/06/06 13:53:54;;;;;;;2.85;0.50;;;;;;;;;;5053285;28;20023;-60
2022/06/06 13:56:33;;;;;;;3.20;0.68;;;22.50;71.90;;;;;;5053140;28;20040;-61
2022/06/06 13:59:11;;;;;;;6.43;0.40;;;22.60;66.70;;;;;;5053122;28;20104;-54
2022/06/06 14:01:43;;;;;;;4.28;0.55;;;22.80;66.70;;;;;;5052906;28;20525;-56
2022/06/06 14:04:23;;;;;;;3.33;0.75;;;22.40;66.10;;;;;;5053255;28;20471;-57
2022/06/06 14:07:19;;;;;;;6.30;0.77;;;22.10;72.00;;;;;;5053215;28;20048;-54
2022/06/06 14:09:49;;;;;;;6.00;0.52;;;22.70;72.40;;;;;;5053011;28;20033;-54
2022/06/06 14:12:18;;;;;;;5.10;1.00;;;;;;;;;;5052903;28;20041;-57
2022/06/06 14:14:44;;;;;;;5.55;0.55;;;;;;;;;;5053132;28;20025;-58
2022/06/06 14:17:11;;;;;;;2.67;0.85;;;22.60;72.60;;;;;;5052994;28;20032;-58
2022/06/06 14:19:46;;;;;;;1.48;0.40;;;22.50;67.00;;;;;;5053064;28;20028;-58
2022/06/06 14:22:26;;;;;;;6.78;0.65;;;22.60;73.10;;;;;;5052959;28;20152;-58
2022/06/06 14:24:53;;;;;;;;;;;22.60;74.10;;;;;;5053345;28;20021;-58
2022/06/06 14:27:20;;;;;;;3.17;0.70;;;22.40;72.70;;;;;;5053012;28;20394;-58
2022/06/06 14:29:51;;;;;;;3.78;0.70;;;22.50;67.20;;;;;;5052688;28;20036;-58
2022/06/06 14:32:28;;;;;;;3.28;0.50;;;22.80;67.30;;;;;;5052626;28;20037;-59
2022/06/06 14:35:22;;;;;;;3.05;0.60;;;22.50;67.00;;;;;;5051906;28;20021;-58
2022/06/06 14:37:48;;;;;;;1.80;0.50;;;22.50;73.30;;;;;;5052807;28;20029;-59
2022/06/06 14:40:42;;;;;;;2.70;0.50;;;22.50;73.10;;;;;;5052677;28;20037;-59
2022/06/06 14:43:08;;;;;;;1.60;0.50;;;;;;;;;;5052683;28;20064;-59